sensor_id;sensor_type;location;lat;lon;timestamp;P1;durP1;ratioP1;P2;durP2;ratioP2
19758;SDS011;10038;42.662;23.278;2023-06-24T00:00:48;15.47;;;11.33;;
19758;SDS011;10038;42.662;23.278;2023-06-24T00:03:17;16.57;;;11.20;;
19758;SDS011;10038;42.662;23.278;2023-06-24T00:05:43;15.40;;;10.80;;
19758;SDS011;10038;42.662;23.278;2023-06-24T00:08:14;14.10;;;10.23;;
19758;SDS011;10038;42.662;23.278;2023-06-24T00:10:42;13.90;;;11.50;;
19758;SDS011;10038;42.662;23.278;2023-06-24T00:13:09;16.70;;;11.90;;
19758;SDS011;10038;42.662;23.278;2023-06-24T00:15:36;16.83;;;11.77;;
19758;SDS011;10038;42.662;23.278;2023-06-24T00:18:02;13.50;;;10.63;;
19758;SDS011;10038;42.662;23.278;2023-06-24T00:20:31;13.93;;;11.60;;
19758;SDS011;10038;42.662;23.278;2023-06-24T00:22:58;13.60;;;10.83;;
19758;SDS011;10038;42.662;23.278;2023-06-24T00:25:24;15.43;;;11.80;;
19758;SDS011;10038;42.662;23.278;2023-06-24T00:27:52;20.20;;;12.40;;
19758;SDS011;10038;42.662;23.278;2023-06-24T00:30:19;13.40;;;11.07;;
19758;SDS011;10038;42.662;23.278;2023-06-24T00:32:45;15.60;;;11.30;;
19758;SDS011;10038;42.662;23.278;2023-06-24T00:35:12;15.53;;;11.27;;
19758;SDS011;10038;42.662;23.278;2023-06-24T00:37:39;20.47;;;11.87;;
19758;SDS011;10038;42.662;23.278;2023-06-24T00:40:06;15.30;;;10.33;;
19758;SDS011;10038;42.662;23.278;2023-06-24T00:42:40;22.47;;;12.60;;
19758;SDS011;10038;42.662;23.278;2023-06-24T00:45:08;14.87;;;11.07;;
19758;SDS011;10038;42.662;23.278;2023-06-24T00:47:35;20.03;;;12.20;;
19758;SDS011;10038;42.662;23.278;2023-06-24T00:50:02;15.97;;;11.37;;
19758;SDS011;10038;42.662;23.278;2023-06-24T00:52:29;18.83;;;12.40;;
19758;SDS011;10038;42.662;23.278;2023-06-24T00:54:55;14.30;;;11.70;;
19758;SDS011;10038;42.662;23.278;2023-06-24T00:57:22;15.57;;;12.90;;
19758;SDS011;10038;42.662;23.278;2023-06-24T00:59:49;18.30;;;11.47;;
19758;SDS011;10038;42.662;23.278;2023-06-24T01:02:19;16.07;;;12.67;;
19758;SDS011;10038;42.662;23.278;2023-06-24T01:04:46;19.50;;;13.37;;
19758;SDS011;10038;42.662;23.278;2023-06-24T01:07:16;17.60;;;12.23;;
19758;SDS011;10038;42.662;23.278;2023-06-24T01:09:43;13.97;;;11.67;;
19758;SDS011;10038;42.662;23.278;2023-06-24T01:12:09;22.30;;;13.37;;
19758;SDS011;10038;42.662;23.278;2023-06-24T01:14:36;17.00;;;11.20;;
19758;SDS011;10038;42.662;23.278;2023-06-24T01:17:03;17.77;;;12.23;;
19758;SDS011;10038;42.662;23.278;2023-06-24T01:19:47;19.33;;;12.80;;
19758;SDS011;10038;42.662;23.278;2023-06-24T01:22:28;14.77;;;11.20;;
19758;SDS011;10038;42.662;23.278;2023-06-24T01:25:01;17.17;;;12.83;;
19758;SDS011;10038;42.662;23.278;2023-06-24T01:30:28;14.90;;;12.23;;
19758;SDS011;10038;42.662;23.278;2023-06-24T01:33:02;16.30;;;12.67;;
19758;SDS011;10038;42.662;23.278;2023-06-24T01:35:31;16.17;;;11.63;;
19758;SDS011;10038;42.662;23.278;2023-06-24T01:37:59;16.70;;;10.87;;
19758;SDS011;10038;42.662;23.278;2023-06-24T01:40:28;14.80;;;11.87;;
19758;SDS011;10038;42.662;23.278;2023-06-24T01:42:57;23.43;;;12.97;;
19758;SDS011;10038;42.662;23.278;2023-06-24T01:45:25;23.13;;;13.53;;
19758;SDS011;10038;42.662;23.278;2023-06-24T01:47:54;16.63;;;12.17;;
19758;SDS011;10038;42.662;23.278;2023-06-24T01:50:24;16.63;;;12.60;;
19758;SDS011;10038;42.662;23.278;2023-06-24T01:52:52;20.27;;;13.80;;
19758;SDS011;10038;42.662;23.278;2023-06-24T01:55:19;15.67;;;11.77;;
19758;SDS011;10038;42.662;23.278;2023-06-24T01:57:47;17.60;;;12.03;;
19758;SDS011;10038;42.662;23.278;2023-06-24T02:00:14;15.87;;;12.83;;
19758;SDS011;10038;42.662;23.278;2023-06-24T02:02:41;16.57;;;12.93;;
19758;SDS011;10038;42.662;23.278;2023-06-24T02:05:08;14.07;;;11.80;;
19758;SDS011;10038;42.662;23.278;2023-06-24T02:07:36;16.57;;;11.70;;
19758;SDS011;10038;42.662;23.278;2023-06-24T02:10:04;17.40;;;11.93;;
19758;SDS011;10038;42.662;23.278;2023-06-24T02:12:32;15.60;;;11.30;;
19758;SDS011;10038;42.662;23.278;2023-06-24T02:14:59;14.23;;;11.00;;
19758;SDS011;10038;42.662;23.278;2023-06-24T02:17:25;18.10;;;12.37;;
19758;SDS011;10038;42.662;23.278;2023-06-24T02:19:55;17.83;;;12.67;;
19758;SDS011;10038;42.662;23.278;2023-06-24T02:22:21;16.00;;;11.90;;
19758;SDS011;10038;42.662;23.278;2023-06-24T02:24:50;18.63;;;11.67;;
19758;SDS011;10038;42.662;23.278;2023-06-24T02:27:17;16.60;;;12.60;;
19758;SDS011;10038;42.662;23.278;2023-06-24T02:29:45;15.67;;;11.83;;
19758;SDS011;10038;42.662;23.278;2023-06-24T02:32:12;17.83;;;13.33;;
19758;SDS011;10038;42.662;23.278;2023-06-24T02:34:39;17.90;;;11.87;;
19758;SDS011;10038;42.662;23.278;2023-06-24T02:37:05;21.83;;;12.10;;
19758;SDS011;10038;42.662;23.278;2023-06-24T02:39:32;14.77;;;11.00;;
19758;SDS011;10038;42.662;23.278;2023-06-24T02:42:00;18.50;;;11.07;;
19758;SDS011;10038;42.662;23.278;2023-06-24T02:44:26;13.63;;;11.57;;
19758;SDS011;10038;42.662;23.278;2023-06-24T02:46:53;21.43;;;13.17;;
19758;SDS011;10038;42.662;23.278;2023-06-24T02:49:20;21.43;;;12.47;;
19758;SDS011;10038;42.662;23.278;2023-06-24T02:51:47;16.23;;;10.83;;
19758;SDS011;10038;42.662;23.278;2023-06-24T02:54:14;17.53;;;12.53;;
19758;SDS011;10038;42.662;23.278;2023-06-24T02:56:41;19.17;;;12.70;;
19758;SDS011;10038;42.662;23.278;2023-06-24T02:59:11;18.43;;;12.50;;
19758;SDS011;10038;42.662;23.278;2023-06-24T03:01:37;24.87;;;13.07;;
19758;SDS011;10038;42.662;23.278;2023-06-24T03:04:10;16.50;;;12.77;;
19758;SDS011;10038;42.662;23.278;2023-06-24T03:06:36;17.00;;;12.87;;
19758;SDS011;10038;42.662;23.278;2023-06-24T03:09:04;16.77;;;12.37;;
19758;SDS011;10038;42.662;23.278;2023-06-24T03:11:39;17.93;;;12.03;;
19758;SDS011;10038;42.662;23.278;2023-06-24T03:14:06;17.50;;;13.10;;
19758;SDS011;10038;42.662;23.278;2023-06-24T03:16:34;19.63;;;13.10;;
19758;SDS011;10038;42.662;23.278;2023-06-24T03:19:00;14.17;;;11.77;;
19758;SDS011;10038;42.662;23.278;2023-06-24T03:21:27;18.73;;;13.00;;
19758;SDS011;10038;42.662;23.278;2023-06-24T03:23:54;16.47;;;11.60;;
19758;SDS011;10038;42.662;23.278;2023-06-24T03:26:21;19.03;;;12.47;;
19758;SDS011;10038;42.662;23.278;2023-06-24T03:28:48;16.63;;;12.87;;
19758;SDS011;10038;42.662;23.278;2023-06-24T03:31:15;16.00;;;11.60;;
19758;SDS011;10038;42.662;23.278;2023-06-24T03:33:43;16.40;;;13.13;;
19758;SDS011;10038;42.662;23.278;2023-06-24T03:36:10;15.33;;;12.10;;
19758;SDS011;10038;42.662;23.278;2023-06-24T03:38:37;21.80;;;12.37;;
19758;SDS011;10038;42.662;23.278;2023-06-24T03:41:03;17.87;;;14.10;;
19758;SDS011;10038;42.662;23.278;2023-06-24T03:43:30;21.57;;;13.83;;
19758;SDS011;10038;42.662;23.278;2023-06-24T03:45:56;18.80;;;13.83;;
19758;SDS011;10038;42.662;23.278;2023-06-24T03:48:24;21.57;;;13.03;;
19758;SDS011;10038;42.662;23.278;2023-06-24T03:50:52;15.83;;;12.40;;
19758;SDS011;10038;42.662;23.278;2023-06-24T03:53:19;18.37;;;13.07;;
19758;SDS011;10038;42.662;23.278;2023-06-24T03:55:45;14.87;;;12.60;;
19758;SDS011;10038;42.662;23.278;2023-06-24T03:58:12;18.33;;;13.33;;
19758;SDS011;10038;42.662;23.278;2023-06-24T04:00:39;19.47;;;14.17;;
19758;SDS011;10038;42.662;23.278;2023-06-24T04:03:05;19.50;;;13.67;;
19758;SDS011;10038;42.662;23.278;2023-06-24T04:05:32;19.57;;;13.13;;
19758;SDS011;10038;42.662;23.278;2023-06-24T04:08:00;19.20;;;13.80;;
19758;SDS011;10038;42.662;23.278;2023-06-24T04:10:27;18.20;;;14.00;;
19758;SDS011;10038;42.662;23.278;2023-06-24T04:12:54;23.33;;;13.50;;
19758;SDS011;10038;42.662;23.278;2023-06-24T04:15:20;19.90;;;13.77;;
19758;SDS011;10038;42.662;23.278;2023-06-24T04:17:47;18.83;;;14.07;;
19758;SDS011;10038;42.662;23.278;2023-06-24T04:20:13;15.60;;;13.20;;
19758;SDS011;10038;42.662;23.278;2023-06-24T04:22:40;22.30;;;15.63;;
19758;SDS011;10038;42.662;23.278;2023-06-24T04:25:08;21.13;;;13.97;;
19758;SDS011;10038;42.662;23.278;2023-06-24T04:27:35;20.40;;;12.77;;
19758;SDS011;10038;42.662;23.278;2023-06-24T04:30:02;17.67;;;14.00;;
19758;SDS011;10038;42.662;23.278;2023-06-24T04:32:29;20.53;;;13.47;;
19758;SDS011;10038;42.662;23.278;2023-06-24T04:34:57;18.93;;;14.53;;
19758;SDS011;10038;42.662;23.278;2023-06-24T04:37:23;19.30;;;13.57;;
19758;SDS011;10038;42.662;23.278;2023-06-24T04:39:50;19.93;;;13.87;;
19758;SDS011;10038;42.662;23.278;2023-06-24T04:42:18;19.60;;;14.67;;
19758;SDS011;10038;42.662;23.278;2023-06-24T04:44:44;18.10;;;13.93;;
19758;SDS011;10038;42.662;23.278;2023-06-24T04:47:11;18.13;;;13.37;;
19758;SDS011;10038;42.662;23.278;2023-06-24T04:49:39;16.77;;;13.17;;
19758;SDS011;10038;42.662;23.278;2023-06-24T04:52:06;16.27;;;12.50;;
19758;SDS011;10038;42.662;23.278;2023-06-24T04:54:32;16.83;;;13.70;;
19758;SDS011;10038;42.662;23.278;2023-06-24T04:56:59;16.30;;;13.27;;
19758;SDS011;10038;42.662;23.278;2023-06-24T04:59:27;15.30;;;11.80;;
19758;SDS011;10038;42.662;23.278;2023-06-24T05:01:54;18.23;;;14.33;;
19758;SDS011;10038;42.662;23.278;2023-06-24T05:04:20;15.87;;;13.20;;
19758;SDS011;10038;42.662;23.278;2023-06-24T05:06:47;18.73;;;13.07;;
19758;SDS011;10038;42.662;23.278;2023-06-24T05:09:14;15.87;;;12.27;;
19758;SDS011;10038;42.662;23.278;2023-06-24T05:11:40;16.37;;;13.10;;
19758;SDS011;10038;42.662;23.278;2023-06-24T05:14:07;15.40;;;12.60;;
19758;SDS011;10038;42.662;23.278;2023-06-24T05:16:35;18.07;;;15.00;;
19758;SDS011;10038;42.662;23.278;2023-06-24T05:19:01;20.50;;;13.13;;
19758;SDS011;10038;42.662;23.278;2023-06-24T05:21:28;17.50;;;13.17;;
19758;SDS011;10038;42.662;23.278;2023-06-24T05:23:55;14.00;;;11.80;;
19758;SDS011;10038;42.662;23.278;2023-06-24T05:26:21;17.50;;;13.30;;
19758;SDS011;10038;42.662;23.278;2023-06-24T05:28:48;19.23;;;13.97;;
19758;SDS011;10038;42.662;23.278;2023-06-24T05:31:14;20.27;;;12.60;;
19758;SDS011;10038;42.662;23.278;2023-06-24T05:33:42;14.70;;;12.90;;
19758;SDS011;10038;42.662;23.278;2023-06-24T05:36:09;17.07;;;12.90;;
19758;SDS011;10038;42.662;23.278;2023-06-24T05:38:35;23.63;;;16.20;;
19758;SDS011;10038;42.662;23.278;2023-06-24T05:41:02;14.77;;;12.47;;
19758;SDS011;10038;42.662;23.278;2023-06-24T05:43:28;15.53;;;12.50;;
19758;SDS011;10038;42.662;23.278;2023-06-24T05:45:55;18.87;;;14.27;;
19758;SDS011;10038;42.662;23.278;2023-06-24T05:48:22;15.03;;;12.70;;
19758;SDS011;10038;42.662;23.278;2023-06-24T05:50:49;16.10;;;13.50;;
19758;SDS011;10038;42.662;23.278;2023-06-24T05:53:16;18.70;;;14.33;;
19758;SDS011;10038;42.662;23.278;2023-06-24T05:55:43;17.43;;;13.00;;
19758;SDS011;10038;42.662;23.278;2023-06-24T05:58:09;14.33;;;12.60;;
19758;SDS011;10038;42.662;23.278;2023-06-24T06:00:36;14.37;;;12.20;;
19758;SDS011;10038;42.662;23.278;2023-06-24T06:03:03;16.60;;;13.83;;
19758;SDS011;10038;42.662;23.278;2023-06-24T06:05:29;15.17;;;12.63;;
19758;SDS011;10038;42.662;23.278;2023-06-24T06:07:57;20.57;;;13.83;;
19758;SDS011;10038;42.662;23.278;2023-06-24T06:10:24;18.00;;;13.23;;
19758;SDS011;10038;42.662;23.278;2023-06-24T06:12:50;15.03;;;13.43;;
19758;SDS011;10038;42.662;23.278;2023-06-24T06:15:18;17.90;;;12.67;;
19758;SDS011;10038;42.662;23.278;2023-06-24T06:17:45;13.23;;;11.83;;
19758;SDS011;10038;42.662;23.278;2023-06-24T06:20:11;16.57;;;12.87;;
19758;SDS011;10038;42.662;23.278;2023-06-24T06:22:38;15.93;;;13.17;;
19758;SDS011;10038;42.662;23.278;2023-06-24T06:25:06;16.73;;;12.93;;
19758;SDS011;10038;42.662;23.278;2023-06-24T06:27:33;13.50;;;11.30;;
19758;SDS011;10038;42.662;23.278;2023-06-24T06:30:00;14.40;;;11.20;;
19758;SDS011;10038;42.662;23.278;2023-06-24T06:32:26;12.30;;;11.07;;
19758;SDS011;10038;42.662;23.278;2023-06-24T06:34:53;13.53;;;11.10;;
19758;SDS011;10038;42.662;23.278;2023-06-24T06:37:19;14.60;;;11.10;;
19758;SDS011;10038;42.662;23.278;2023-06-24T06:39:46;12.00;;;10.30;;
19758;SDS011;10038;42.662;23.278;2023-06-24T06:42:14;14.17;;;11.90;;
19758;SDS011;10038;42.662;23.278;2023-06-24T06:44:40;14.33;;;12.30;;
19758;SDS011;10038;42.662;23.278;2023-06-24T06:47:07;12.03;;;10.67;;
19758;SDS011;10038;42.662;23.278;2023-06-24T06:49:34;16.03;;;11.67;;
19758;SDS011;10038;42.662;23.278;2023-06-24T06:52:00;13.97;;;11.57;;
19758;SDS011;10038;42.662;23.278;2023-06-24T06:54:27;13.33;;;12.10;;
19758;SDS011;10038;42.662;23.278;2023-06-24T06:56:53;12.90;;;11.33;;
19758;SDS011;10038;42.662;23.278;2023-06-24T06:59:22;13.37;;;11.77;;
19758;SDS011;10038;42.662;23.278;2023-06-24T07:01:48;16.07;;;12.43;;
19758;SDS011;10038;42.662;23.278;2023-06-24T07:04:15;18.63;;;11.53;;
19758;SDS011;10038;42.662;23.278;2023-06-24T07:06:41;12.77;;;11.47;;
19758;SDS011;10038;42.662;23.278;2023-06-24T07:09:08;16.30;;;11.47;;
19758;SDS011;10038;42.662;23.278;2023-06-24T07:11:34;13.70;;;12.30;;
19758;SDS011;10038;42.662;23.278;2023-06-24T07:14:01;14.10;;;11.40;;
19758;SDS011;10038;42.662;23.278;2023-06-24T07:16:29;13.40;;;12.00;;
19758;SDS011;10038;42.662;23.278;2023-06-24T07:18:55;13.27;;;11.97;;
19758;SDS011;10038;42.662;23.278;2023-06-24T07:21:22;14.03;;;12.53;;
19758;SDS011;10038;42.662;23.278;2023-06-24T07:23:48;17.20;;;13.80;;
19758;SDS011;10038;42.662;23.278;2023-06-24T07:26:15;14.37;;;12.67;;
19758;SDS011;10038;42.662;23.278;2023-06-24T07:28:42;17.27;;;14.63;;
19758;SDS011;10038;42.662;23.278;2023-06-24T07:31:08;15.10;;;12.20;;
19758;SDS011;10038;42.662;23.278;2023-06-24T07:33:36;16.83;;;14.17;;
19758;SDS011;10038;42.662;23.278;2023-06-24T07:36:03;15.67;;;13.97;;
19758;SDS011;10038;42.662;23.278;2023-06-24T07:38:30;14.57;;;12.17;;
19758;SDS011;10038;42.662;23.278;2023-06-24T07:40:56;16.40;;;13.00;;
19758;SDS011;10038;42.662;23.278;2023-06-24T07:43:23;13.80;;;12.40;;
19758;SDS011;10038;42.662;23.278;2023-06-24T07:45:49;13.70;;;12.30;;
19758;SDS011;10038;42.662;23.278;2023-06-24T07:48:16;14.40;;;13.00;;
19758;SDS011;10038;42.662;23.278;2023-06-24T07:50:44;17.43;;;13.20;;
19758;SDS011;10038;42.662;23.278;2023-06-24T07:53:11;18.30;;;12.47;;
19758;SDS011;10038;42.662;23.278;2023-06-24T07:55:37;13.60;;;12.40;;
19758;SDS011;10038;42.662;23.278;2023-06-24T07:58:04;13.77;;;11.67;;
19758;SDS011;10038;42.662;23.278;2023-06-24T08:00:31;13.20;;;11.90;;
19758;SDS011;10038;42.662;23.278;2023-06-24T08:02:57;15.33;;;13.83;;
19758;SDS011;10038;42.662;23.278;2023-06-24T08:05:24;15.63;;;12.30;;
19758;SDS011;10038;42.662;23.278;2023-06-24T08:07:52;14.03;;;12.60;;
19758;SDS011;10038;42.662;23.278;2023-06-24T08:10:18;14.40;;;12.93;;
19758;SDS011;10038;42.662;23.278;2023-06-24T08:12:45;15.10;;;12.57;;
19758;SDS011;10038;42.662;23.278;2023-06-24T08:15:13;13.40;;;12.20;;
19758;SDS011;10038;42.662;23.278;2023-06-24T08:17:40;13.90;;;11.83;;
19758;SDS011;10038;42.662;23.278;2023-06-24T08:20:06;20.20;;;12.20;;
19758;SDS011;10038;42.662;23.278;2023-06-24T08:22:34;14.50;;;12.13;;
19758;SDS011;10038;42.662;23.278;2023-06-24T08:25:03;15.07;;;13.47;;
19758;SDS011;10038;42.662;23.278;2023-06-24T08:27:29;14.77;;;13.20;;
19758;SDS011;10038;42.662;23.278;2023-06-24T08:29:56;14.67;;;13.27;;
19758;SDS011;10038;42.662;23.278;2023-06-24T08:32:22;13.60;;;12.07;;
19758;SDS011;10038;42.662;23.278;2023-06-24T08:34:49;13.27;;;11.50;;
19758;SDS011;10038;42.662;23.278;2023-06-24T08:37:15;14.00;;;12.43;;
19758;SDS011;10038;42.662;23.278;2023-06-24T08:39:42;14.63;;;12.53;;
19758;SDS011;10038;42.662;23.278;2023-06-24T08:42:10;13.13;;;11.57;;
19758;SDS011;10038;42.662;23.278;2023-06-24T08:44:37;17.00;;;13.00;;
19758;SDS011;10038;42.662;23.278;2023-06-24T08:47:03;14.97;;;13.40;;
19758;SDS011;10038;42.662;23.278;2023-06-24T08:49:30;13.97;;;12.53;;
19758;SDS011;10038;42.662;23.278;2023-06-24T08:51:59;14.97;;;13.67;;
19758;SDS011;10038;42.662;23.278;2023-06-24T08:54:26;15.10;;;12.20;;
19758;SDS011;10038;42.662;23.278;2023-06-24T08:56:52;13.17;;;11.83;;
19758;SDS011;10038;42.662;23.278;2023-06-24T08:59:20;15.67;;;12.67;;
19758;SDS011;10038;42.662;23.278;2023-06-24T09:01:47;14.30;;;12.90;;
19758;SDS011;10038;42.662;23.278;2023-06-24T09:04:14;13.70;;;12.43;;
19758;SDS011;10038;42.662;23.278;2023-06-24T09:06:41;15.20;;;13.80;;
19758;SDS011;10038;42.662;23.278;2023-06-24T09:09:16;14.30;;;12.87;;
19758;SDS011;10038;42.662;23.278;2023-06-24T09:11:45;15.67;;;12.63;;
19758;SDS011;10038;42.662;23.278;2023-06-24T09:14:17;14.67;;;13.13;;
19758;SDS011;10038;42.662;23.278;2023-06-24T09:16:46;13.97;;;12.47;;
19758;SDS011;10038;42.662;23.278;2023-06-24T09:19:19;14.00;;;12.77;;
19758;SDS011;10038;42.662;23.278;2023-06-24T09:21:46;13.80;;;11.67;;
19758;SDS011;10038;42.662;23.278;2023-06-24T09:24:12;16.00;;;14.40;;
19758;SDS011;10038;42.662;23.278;2023-06-24T09:26:41;13.83;;;12.53;;
19758;SDS011;10038;42.662;23.278;2023-06-24T09:29:08;13.23;;;12.03;;
19758;SDS011;10038;42.662;23.278;2023-06-24T09:31:34;12.63;;;11.43;;
19758;SDS011;10038;42.662;23.278;2023-06-24T09:34:02;13.93;;;12.67;;
19758;SDS011;10038;42.662;23.278;2023-06-24T09:36:29;15.00;;;13.57;;
19758;SDS011;10038;42.662;23.278;2023-06-24T09:38:56;13.00;;;10.80;;
19758;SDS011;10038;42.662;23.278;2023-06-24T09:41:28;12.47;;;11.17;;
19758;SDS011;10038;42.662;23.278;2023-06-24T09:43:55;13.53;;;11.90;;
19758;SDS011;10038;42.662;23.278;2023-06-24T09:46:24;13.57;;;11.27;;
19758;SDS011;10038;42.662;23.278;2023-06-24T09:48:50;13.33;;;11.13;;
19758;SDS011;10038;42.662;23.278;2023-06-24T09:51:18;12.53;;;11.20;;
19758;SDS011;10038;42.662;23.278;2023-06-24T09:53:45;13.17;;;11.70;;
19758;SDS011;10038;42.662;23.278;2023-06-24T09:56:12;12.17;;;10.90;;
19758;SDS011;10038;42.662;23.278;2023-06-24T09:58:39;14.30;;;11.07;;
19758;SDS011;10038;42.662;23.278;2023-06-24T10:01:06;11.83;;;10.77;;
19758;SDS011;10038;42.662;23.278;2023-06-24T10:03:34;13.17;;;11.93;;
19758;SDS011;10038;42.662;23.278;2023-06-24T10:06:01;12.40;;;11.20;;
19758;SDS011;10038;42.662;23.278;2023-06-24T10:08:30;14.13;;;11.33;;
19758;SDS011;10038;42.662;23.278;2023-06-24T10:10:56;10.90;;;9.90;;
19758;SDS011;10038;42.662;23.278;2023-06-24T10:13:23;11.40;;;10.03;;
19758;SDS011;10038;42.662;23.278;2023-06-24T10:15:51;11.60;;;10.50;;
19758;SDS011;10038;42.662;23.278;2023-06-24T10:18:33;11.60;;;10.40;;
19758;SDS011;10038;42.662;23.278;2023-06-24T10:21:00;12.03;;;10.93;;
19758;SDS011;10038;42.662;23.278;2023-06-24T10:23:31;12.10;;;10.90;;
19758;SDS011;10038;42.662;23.278;2023-06-24T10:25:57;12.23;;;10.87;;
19758;SDS011;10038;42.662;23.278;2023-06-24T10:28:24;11.77;;;10.57;;
19758;SDS011;10038;42.662;23.278;2023-06-24T10:30:54;10.90;;;10.00;;
19758;SDS011;10038;42.662;23.278;2023-06-24T10:33:21;11.67;;;10.50;;
19758;SDS011;10038;42.662;23.278;2023-06-24T10:35:49;12.00;;;10.20;;
19758;SDS011;10038;42.662;23.278;2023-06-24T10:38:16;10.53;;;9.50;;
19758;SDS011;10038;42.662;23.278;2023-06-24T10:40:44;11.40;;;10.33;;
19758;SDS011;10038;42.662;23.278;2023-06-24T10:43:23;12.00;;;10.67;;
19758;SDS011;10038;42.662;23.278;2023-06-24T10:45:53;13.07;;;10.57;;
19758;SDS011;10038;42.662;23.278;2023-06-24T10:48:20;11.43;;;10.33;;
19758;SDS011;10038;42.662;23.278;2023-06-24T10:50:46;12.30;;;10.87;;
19758;SDS011;10038;42.662;23.278;2023-06-24T10:53:14;11.63;;;10.17;;
19758;SDS011;10038;42.662;23.278;2023-06-24T10:55:44;10.77;;;9.73;;
19758;SDS011;10038;42.662;23.278;2023-06-24T10:58:12;10.73;;;9.83;;
19758;SDS011;10038;42.662;23.278;2023-06-24T11:00:40;14.57;;;8.90;;
19758;SDS011;10038;42.662;23.278;2023-06-24T11:03:10;9.43;;;8.63;;
19758;SDS011;10038;42.662;23.278;2023-06-24T11:05:39;10.37;;;8.90;;
19758;SDS011;10038;42.662;23.278;2023-06-24T11:08:06;12.70;;;8.70;;
19758;SDS011;10038;42.662;23.278;2023-06-24T11:10:33;10.33;;;8.87;;
19758;SDS011;10038;42.662;23.278;2023-06-24T11:15:51;9.30;;;8.13;;
19758;SDS011;10038;42.662;23.278;2023-06-24T11:18:18;10.23;;;7.87;;
19758;SDS011;10038;42.662;23.278;2023-06-24T11:20:45;8.83;;;7.70;;
19758;SDS011;10038;42.662;23.278;2023-06-24T11:23:11;9.50;;;7.77;;
19758;SDS011;10038;42.662;23.278;2023-06-24T11:25:38;8.57;;;7.67;;
19758;SDS011;10038;42.662;23.278;2023-06-24T11:28:05;8.87;;;8.07;;
19758;SDS011;10038;42.662;23.278;2023-06-24T11:30:33;8.73;;;7.93;;
19758;SDS011;10038;42.662;23.278;2023-06-24T11:33:01;9.30;;;8.40;;
19758;SDS011;10038;42.662;23.278;2023-06-24T11:35:28;9.50;;;8.70;;
19758;SDS011;10038;42.662;23.278;2023-06-24T11:37:57;8.50;;;7.73;;
19758;SDS011;10038;42.662;23.278;2023-06-24T11:40:24;8.40;;;7.60;;
19758;SDS011;10038;42.662;23.278;2023-06-24T11:42:50;8.50;;;7.53;;
19758;SDS011;10038;42.662;23.278;2023-06-24T11:45:19;9.60;;;8.07;;
19758;SDS011;10038;42.662;23.278;2023-06-24T11:47:46;8.63;;;7.73;;
19758;SDS011;10038;42.662;23.278;2023-06-24T11:50:15;10.00;;;9.10;;
19758;SDS011;10038;42.662;23.278;2023-06-24T11:52:43;12.83;;;8.50;;
19758;SDS011;10038;42.662;23.278;2023-06-24T11:55:15;10.23;;;8.53;;
19758;SDS011;10038;42.662;23.278;2023-06-24T11:57:52;9.83;;;8.90;;
19758;SDS011;10038;42.662;23.278;2023-06-24T12:00:19;10.00;;;8.10;;
19758;SDS011;10038;42.662;23.278;2023-06-24T12:02:48;8.90;;;8.00;;
19758;SDS011;10038;42.662;23.278;2023-06-24T12:05:20;8.33;;;7.53;;
19758;SDS011;10038;42.662;23.278;2023-06-24T12:07:51;14.80;;;8.40;;
19758;SDS011;10038;42.662;23.278;2023-06-24T12:10:18;8.10;;;7.30;;
19758;SDS011;10038;42.662;23.278;2023-06-24T12:12:44;8.23;;;7.40;;
19758;SDS011;10038;42.662;23.278;2023-06-24T12:15:11;7.83;;;7.07;;
19758;SDS011;10038;42.662;23.278;2023-06-24T12:17:37;10.30;;;7.93;;
19758;SDS011;10038;42.662;23.278;2023-06-24T12:20:04;13.40;;;7.97;;
19758;SDS011;10038;42.662;23.278;2023-06-24T12:22:32;8.80;;;7.90;;
19758;SDS011;10038;42.662;23.278;2023-06-24T12:24:59;8.07;;;7.27;;
19758;SDS011;10038;42.662;23.278;2023-06-24T12:27:25;9.27;;;8.20;;
19758;SDS011;10038;42.662;23.278;2023-06-24T12:29:53;8.20;;;7.50;;
19758;SDS011;10038;42.662;23.278;2023-06-24T12:32:19;8.80;;;7.90;;
19758;SDS011;10038;42.662;23.278;2023-06-24T12:34:46;9.70;;;7.97;;
19758;SDS011;10038;42.662;23.278;2023-06-24T12:37:13;11.23;;;7.73;;
19758;SDS011;10038;42.662;23.278;2023-06-24T12:39:41;9.40;;;7.03;;
19758;SDS011;10038;42.662;23.278;2023-06-24T12:42:08;8.00;;;7.10;;
19758;SDS011;10038;42.662;23.278;2023-06-24T12:44:35;11.07;;;7.90;;
19758;SDS011;10038;42.662;23.278;2023-06-24T12:47:01;8.77;;;7.80;;
19758;SDS011;10038;42.662;23.278;2023-06-24T12:49:28;8.80;;;7.47;;
19758;SDS011;10038;42.662;23.278;2023-06-24T12:51:55;7.70;;;7.00;;
19758;SDS011;10038;42.662;23.278;2023-06-24T12:54:21;9.07;;;7.80;;
19758;SDS011;10038;42.662;23.278;2023-06-24T12:56:49;12.80;;;8.60;;
19758;SDS011;10038;42.662;23.278;2023-06-24T12:59:16;11.23;;;8.63;;
19758;SDS011;10038;42.662;23.278;2023-06-24T13:01:42;10.73;;;9.63;;
19758;SDS011;10038;42.662;23.278;2023-06-24T13:04:10;15.50;;;10.57;;
19758;SDS011;10038;42.662;23.278;2023-06-24T13:06:36;14.90;;;11.17;;
19758;SDS011;10038;42.662;23.278;2023-06-24T13:09:03;12.40;;;9.00;;
19758;SDS011;10038;42.662;23.278;2023-06-24T13:11:29;10.00;;;8.97;;
19758;SDS011;10038;42.662;23.278;2023-06-24T13:13:57;9.27;;;8.37;;
19758;SDS011;10038;42.662;23.278;2023-06-24T13:16:24;8.73;;;7.80;;
19758;SDS011;10038;42.662;23.278;2023-06-24T13:18:51;9.53;;;8.60;;
19758;SDS011;10038;42.662;23.278;2023-06-24T13:21:17;11.57;;;9.57;;
19758;SDS011;10038;42.662;23.278;2023-06-24T13:23:44;15.90;;;9.53;;
19758;SDS011;10038;42.662;23.278;2023-06-24T13:26:11;18.37;;;9.30;;
19758;SDS011;10038;42.662;23.278;2023-06-24T13:28:38;15.67;;;10.10;;
19758;SDS011;10038;42.662;23.278;2023-06-24T13:31:06;15.47;;;10.73;;
19758;SDS011;10038;42.662;23.278;2023-06-24T13:33:32;12.27;;;8.47;;
19758;SDS011;10038;42.662;23.278;2023-06-24T13:35:59;13.40;;;8.77;;
19758;SDS011;10038;42.662;23.278;2023-06-24T13:38:25;10.90;;;8.53;;
19758;SDS011;10038;42.662;23.278;2023-06-24T13:40:52;9.47;;;7.00;;
19758;SDS011;10038;42.662;23.278;2023-06-24T13:43:19;10.90;;;7.87;;
19758;SDS011;10038;42.662;23.278;2023-06-24T13:45:45;13.77;;;6.30;;
19758;SDS011;10038;42.662;23.278;2023-06-24T13:48:13;13.73;;;7.87;;
19758;SDS011;10038;42.662;23.278;2023-06-24T13:50:40;9.30;;;5.60;;
19758;SDS011;10038;42.662;23.278;2023-06-24T13:53:06;18.43;;;6.30;;
19758;SDS011;10038;42.662;23.278;2023-06-24T13:55:33;23.07;;;7.17;;
19758;SDS011;10038;42.662;23.278;2023-06-24T13:58:01;19.33;;;7.10;;
19758;SDS011;10038;42.662;23.278;2023-06-24T14:00:27;11.37;;;7.10;;
19758;SDS011;10038;42.662;23.278;2023-06-24T14:02:54;11.63;;;7.10;;
19758;SDS011;10038;42.662;23.278;2023-06-24T14:05:22;18.77;;;7.20;;
19758;SDS011;10038;42.662;23.278;2023-06-24T14:07:49;8.77;;;7.10;;
19758;SDS011;10038;42.662;23.278;2023-06-24T14:10:15;9.70;;;6.73;;
19758;SDS011;10038;42.662;23.278;2023-06-24T14:12:42;13.87;;;7.63;;
19758;SDS011;10038;42.662;23.278;2023-06-24T14:15:08;10.23;;;7.50;;
19758;SDS011;10038;42.662;23.278;2023-06-24T14:17:35;11.87;;;6.40;;
19758;SDS011;10038;42.662;23.278;2023-06-24T14:20:02;9.20;;;5.80;;